createdAt,value
2019-03-01T00:01:08.195Z,21.8
2019-03-01T00:11:07.399Z,21.8
2019-03-01T00:21:06.601Z,21.8
2019-03-01T00:31:05.810Z,21.8
2019-03-01T00:41:05.696Z,21.8
2019-03-01T00:51:04.222Z,21.8
2019-03-01T01:01:03.430Z,21.7
2019-03-01T01:11:02.680Z,21.7
2019-03-01T01:21:01.841Z,21.7
2019-03-01T01:31:01.041Z,21.7
2019-03-01T01:41:00.246Z,21.7
2019-03-01T01:50:59.454Z,21.6
2019-03-01T02:00:58.709Z,21.6
2019-03-01T02:10:57.863Z,21.6
2019-03-01T02:20:57.069Z,21.6
2019-03-01T02:30:56.273Z,21.6
2019-03-01T02:40:55.476Z,21.6
2019-03-01T02:50:54.732Z,21.6
2019-03-01T03:00:53.886Z,21.6
2019-03-01T03:10:53.100Z,21.6
2019-03-01T03:20:52.348Z,21.6
2019-03-01T03:30:51.510Z,21.6
2019-03-01T03:40:50.760Z,21.6
2019-03-01T03:50:49.959Z,21.6
2019-03-01T04:00:49.113Z,21.5
2019-03-01T04:10:49.013Z,21.5
2019-03-01T04:20:48.215Z,21.5
2019-03-01T04:30:47.419Z,21.5
2019-03-01T04:40:46.622Z,21.5
2019-03-01T04:50:45.825Z,21.5
2019-03-01T05:00:45.028Z,21.6
2019-03-01T05:10:44.285Z,21.7
2019-03-01T05:20:43.440Z,21.7
2019-03-01T05:30:42.642Z,21.7
2019-03-01T05:40:41.849Z,21.7
2019-03-01T05:50:41.057Z,21.8
2019-03-01T06:00:40.316Z,21.8
2019-03-01T06:10:39.474Z,21.7
2019-03-01T06:20:38.685Z,21.8
2019-03-01T06:30:37.891Z,21.8
2019-03-01T06:40:37.100Z,21.9
2019-03-01T06:50:36.302Z,21.9
2019-03-01T07:00:35.507Z,22
2019-03-01T07:10:34.714Z,22
2019-03-01T07:20:33.919Z,22.1
2019-03-01T07:30:33.121Z,22.1
2019-03-01T07:40:32.324Z,22.1
2019-03-01T07:50:31.583Z,22.1
2019-03-01T08:00:30.835Z,22.1
2019-03-01T08:10:29.943Z,22.1
2019-03-01T08:20:30.304Z,22.1
2019-03-01T08:30:28.355Z,22.1
2019-03-01T08:40:27.561Z,22.1
2019-03-01T08:50:26.766Z,22.1
2019-03-01T09:00:26.645Z,22.2
2019-03-01T09:10:25.185Z,22.2
2019-03-01T09:20:24.432Z,22.3
2019-03-01T09:30:23.587Z,22.3
2019-03-01T09:40:25.498Z,22.3
2019-03-01T09:50:22.001Z,22.3
2019-03-01T10:00:21.201Z,22.4
2019-03-01T10:10:20.405Z,22.4
2019-03-01T10:20:19.610Z,22.4
2019-03-01T10:30:18.818Z,22.6
2019-03-01T10:40:18.028Z,22.8
2019-03-01T10:50:17.239Z,22.6
2019-03-01T11:00:16.452Z,22.6
2019-03-01T11:10:15.667Z,22.6
2019-03-01T11:20:14.882Z,22.6
2019-03-01T11:30:14.095Z,22.6
2019-03-01T11:40:13.306Z,22.6
2019-03-01T11:50:12.516Z,22.6
2019-03-01T12:00:11.727Z,22.4
2019-03-01T12:10:12.409Z,22.6
2019-03-01T12:20:10.152Z,22.6
2019-03-01T12:30:09.360Z,22.5
2019-03-01T12:40:08.570Z,22.5
2019-03-01T12:50:07.779Z,22.4
2019-03-01T13:00:06.987Z,22.4
2019-03-01T13:10:06.946Z,22.4
2019-03-01T13:24:04.858Z,22.4
2019-03-01T13:34:04.071Z,22.4
2019-03-01T13:44:04.063Z,22.4
2019-03-01T13:54:02.491Z,22.3
2019-03-01T14:04:03.186Z,22.3
2019-03-01T14:14:00.899Z,22.3
2019-03-01T14:24:00.154Z,22.3
2019-03-01T14:33:59.447Z,22.4
2019-03-01T14:43:59.738Z,22.4
2019-03-01T14:53:58.028Z,22.3
2019-03-01T15:03:57.320Z,22.3
2019-03-01T15:13:56.608Z,22.4
2019-03-01T15:23:56.124Z,22.4
2019-03-01T15:33:55.049Z,22.3
2019-03-01T15:43:54.242Z,22.3
2019-03-01T15:53:53.450Z,22.3
2019-03-01T16:03:54.026Z,22.3
2019-03-01T16:13:51.915Z,22.3
2019-03-01T16:23:51.074Z,22.2
2019-03-01T16:33:50.284Z,22.3
2019-03-01T16:43:49.493Z,22.3
2019-03-01T16:53:48.705Z,22.4
2019-03-01T17:03:49.499Z,22.3
2019-03-01T17:13:47.144Z,22.4
2019-03-01T17:23:46.352Z,22.4
2019-03-01T17:33:48.746Z,22.4
2019-03-01T17:43:44.796Z,22.4
2019-03-01T17:53:46.245Z,22.4
2019-03-01T18:03:43.216Z,22.4
2019-03-01T18:13:42.434Z,22.4
2019-03-01T18:23:41.649Z,22.6
2019-03-01T18:33:42.633Z,22.4
2019-03-01T18:43:40.073Z,22.4
2019-03-01T18:53:39.289Z,22.4
2019-03-01T19:03:40.154Z,22.4
2019-03-01T19:13:38.770Z,22.4
2019-03-01T19:23:37.985Z,22.4
2019-03-01T19:33:37.773Z,22.4
2019-03-01T19:43:36.412Z,22.5
2019-03-01T19:53:37.457Z,22.4
2019-03-01T20:03:34.840Z,22.3
2019-03-01T20:13:34.053Z,22.4
2019-03-01T20:23:33.267Z,22.4
2019-03-01T20:33:32.505Z,22.4
2019-03-01T20:43:31.695Z,22.4
2019-03-01T20:53:30.897Z,22.3
2019-03-01T21:03:30.687Z,22.3
2019-03-01T21:11:04.100Z,22.3
2019-03-01T21:21:03.296Z,22.3
2019-03-01T21:31:02.505Z,22.3
2019-03-01T21:41:01.715Z,22.3
2019-03-01T21:51:00.928Z,22.3
2019-03-01T22:01:02.603Z,22.1
2019-03-01T22:10:59.395Z,22.3
2019-03-01T22:20:58.739Z,22.1
2019-03-01T22:31:00.147Z,22.3
2019-03-01T22:45:40.400Z,22.2
2019-03-01T22:55:39.611Z,22.2
2019-03-01T23:05:39.147Z,22.1
2019-03-01T23:15:39.424Z,22.1
2019-03-01T23:25:37.238Z,22.1
2019-03-01T23:35:36.445Z,22.1
2019-03-01T23:45:35.697Z,22.1
2019-03-01T23:55:34.984Z,22.1
